Ana Sayfa
METAR-TAF:

METAR-TAF

Havaalanları :

Decatur Municipal Airport

Decatur, Teksas, Amerika Birleşik Devletleri

Enlem: 33-15-16N, Boylam: 097-34-50W, yükseklik: 319 m

Güncel hava durumu gözlemi

Rapor saat 21:55 UTC de 26 dakika önce yapıldı.
Rüzgar doğu/kuzeydoğudan 14 kt ve 20 kt'a kadar ani rüzgarlar
Sıcaklık 25°C
Nem 61%
Basınç 1019 hPa
Görüş mesafesi: 11.3 km
Açık gökyüzü

METAR: KLUD 282155Z AUTO 06014G20KT 7SM CLR 25/17 A3008 RMK AO2 T02490168

Saat: 17:21 (22:21 UTC)


TAF: eksik

4.000'den fazla havaalanı için hava durumu gözlemleri ve tahminleri (METAR ve TAF raporları).

Kullanılabilir istasyonlar harita üzerinde sarı ve kırmızı noktalarla gösterilir.

İstasyonun adını görmek için fareyi noktanın üzerinde gezdirin.

Sonrasında hava gözlem ve tahminlerini görmek için tıklayın.

Haritayı değiştirmek için: yaklaştırmak için siyah artı işaretli yeşil düğmeye ve uzaklaştırmak için de eksi işaretli düğmeye hızla tıklayın; bitişik haritalar için yeşil okları kullanın.


METAR-TAF: